Time;durP1;ratioP1;P1;durP2;ratioP2;P2;SDS_P1;SDS_P2;PMS_P1;PMS_P2;Temp;Humidity;BMP_temperature;BMP_pressure;BME280_temperature;BME280_humidity;BME280_pressure;Samples;Min_cycle;Max_cycle;Signal;HPM_P1;HPM_P2
2023/09/23 00:02:22;;;;;;;0.85;0.85;;;11.80;99.90;;;;;;5047118;28;20033;-39
2023/09/23 00:04:48;;;;;;;2.67;1.00;;;11.80;99.90;;;;;;5046022;28;20378;-41
2023/09/23 00:07:13;;;;;;;0.80;0.80;;;11.90;99.90;;;;;;5047417;28;20040;-37
2023/09/23 00:09:39;;;;;;;1.23;1.05;;;11.80;99.90;;;;;;5044198;28;20044;-39
2023/09/23 00:12:06;;;;;;;1.13;0.88;;;11.80;99.90;;;;;;5046321;28;20119;-39
2023/09/23 00:14:32;;;;;;;1.00;1.00;;;11.80;99.90;;;;;;5046611;28;20033;-39
2023/09/23 00:16:58;;;;;;;0.95;0.85;;;11.80;99.90;;;;;;5043227;28;20040;-39
2023/09/23 00:19:24;;;;;;;1.55;0.95;;;11.80;99.90;;;;;;5047342;28;20612;-40
2023/09/23 00:21:51;;;;;;;0.80;0.80;;;11.80;99.90;;;;;;5044761;28;20035;-40
2023/09/23 00:24:18;;;;;;;1.00;1.00;;;11.90;99.90;;;;;;5044859;28;20063;-40
2023/09/23 00:26:43;;;;;;;1.00;0.80;;;11.80;99.90;;;;;;5047887;28;20032;-39
2023/09/23 00:29:11;;;;;;;1.30;1.20;;;11.80;99.90;;;;;;5042136;28;20040;-34
2023/09/23 00:31:36;;;;;;;0.90;0.90;;;11.80;99.90;;;;;;5046113;28;20087;-39
2023/09/23 00:34:03;;;;;;;0.98;0.90;;;11.80;99.90;;;;;;5043944;28;20095;-32
2023/09/23 00:36:30;;;;;;;1.00;1.00;;;11.80;99.90;;;;;;5043188;28;20037;-35
2023/09/23 00:38:56;;;;;;;1.05;1.05;;;11.80;99.90;;;;;;5042345;28;20048;-34
2023/09/23 00:41:25;;;;;;;1.58;1.00;;;11.80;99.90;;;;;;5045695;28;20498;-33
2023/09/23 00:43:51;;;;;;;0.98;0.98;;;11.80;99.90;;;;;;5040561;28;20049;-32
2023/09/23 00:46:21;;;;;;;0.93;0.90;;;11.80;99.90;;;;;;5043043;28;20111;-33
2023/09/23 00:48:48;;;;;;;1.85;1.02;;;11.80;99.90;;;;;;5050373;28;20031;-34
2023/09/23 00:51:18;;;;;;;1.08;1.08;;;11.80;99.90;;;;;;5047118;28;20561;-32
2023/09/23 00:53:48;;;;;;;1.10;1.10;;;11.80;99.90;;;;;;5062308;28;20035;-35
2023/09/23 00:56:16;;;;;;;1.45;1.20;;;11.80;99.90;;;;;;5048005;28;20112;-34
2023/09/23 00:58:44;;;;;;;1.48;1.38;;;11.80;99.90;;;;;;5064536;28;20055;-34
2023/09/23 01:01:10;;;;;;;2.55;1.80;;;11.80;99.90;;;;;;5044966;28;20032;-35
2023/09/23 01:03:39;;;;;;;1.98;1.10;;;11.70;99.90;;;;;;5045245;28;20028;-32
2023/09/23 01:06:14;;;;;;;1.58;1.48;;;11.80;99.90;;;;;;5047323;28;20036;-34
2023/09/23 01:08:42;;;;;;;2.17;1.20;;;11.70;99.90;;;;;;5052225;28;20044;-35
2023/09/23 01:11:08;;;;;;;1.50;1.40;;;11.80;99.90;;;;;;5047069;28;20029;-33
2023/09/23 01:13:43;;;;;;;1.20;1.20;;;11.80;99.90;;;;;;5047895;28;20038;-34
2023/09/23 01:16:12;;;;;;;1.48;1.38;;;11.80;99.90;;;;;;5050172;28;20394;-33
2023/09/23 01:18:39;;;;;;;1.38;1.27;;;11.80;99.90;;;;;;5046768;28;20025;-33
2023/09/23 01:21:09;;;;;;;1.45;1.35;;;11.80;99.90;;;;;;5047393;28;20025;-32
2023/09/23 01:23:38;;;;;;;1.50;1.40;;;11.80;99.90;;;;;;5058291;28;20083;-33
2023/09/23 01:26:11;;;;;;;2.17;1.40;;;11.80;99.90;;;;;;5047244;28;20036;-35
2023/09/23 01:28:37;;;;;;;3.67;1.40;;;11.80;99.90;;;;;;5062305;28;20025;-33
2023/09/23 01:31:04;;;;;;;1.40;1.30;;;11.80;99.90;;;;;;5047710;28;20039;-34
2023/09/23 01:33:30;;;;;;;2.00;1.60;;;11.80;99.90;;;;;;5056023;28;20029;-37
2023/09/23 01:36:02;;;;;;;1.33;1.23;;;11.80;99.90;;;;;;5050382;28;20081;-33
2023/09/23 01:38:30;;;;;;;1.77;1.67;;;11.80;99.90;;;;;;5047353;28;20837;-34
2023/09/23 01:40:55;;;;;;;1.70;1.60;;;11.80;99.90;;;;;;5025474;28;20026;-32
2023/09/23 01:43:25;;;;;;;1.60;1.50;;;11.80;99.90;;;;;;5042894;28;20539;-32
2023/09/23 01:45:52;;;;;;;2.83;1.55;;;11.90;99.90;;;;;;5046923;28;20028;-40
2023/09/23 01:48:22;;;;;;;1.80;1.70;;;11.90;99.90;;;;;;5045051;28;20555;-39
2023/09/23 01:50:49;;;;;;;1.98;1.63;;;11.90;99.90;;;;;;5043715;28;20033;-39
2023/09/23 01:53:19;;;;;;;3.88;1.75;;;11.90;99.90;;;;;;5043854;28;20040;-40
2023/09/23 01:55:45;;;;;;;1.80;1.70;;;11.90;99.90;;;;;;5043863;28;20036;-39
2023/09/23 01:58:10;;;;;;;2.00;1.90;;;11.90;99.90;;;;;;5046132;28;20064;-37
2023/09/23 02:00:37;;;;;;;2.03;1.92;;;11.80;99.90;;;;;;5064901;28;20060;-39
2023/09/23 02:03:03;;;;;;;1.88;1.77;;;11.80;99.90;;;;;;5049866;28;20445;-38
2023/09/23 02:05:29;;;;;;;1.83;1.73;;;11.90;99.90;;;;;;5048115;28;20139;-38
2023/09/23 02:11:18;;;;;;;1.88;1.70;;;11.90;99.90;;;;;;5047616;28;20074;-39
2023/09/23 02:13:43;;;;;;;1.90;1.80;;;11.80;99.90;;;;;;5048629;28;20360;-39
2023/09/23 02:16:10;;;;;;;2.10;2.00;;;11.80;99.90;;;;;;5045665;28;20099;-35
2023/09/23 02:18:37;;;;;;;1.90;1.80;;;11.80;99.90;;;;;;5049240;28;20078;-39
2023/09/23 02:21:03;;;;;;;1.90;1.80;;;11.70;99.90;;;;;;5050215;28;20033;-39
2023/09/23 02:23:29;;;;;;;2.08;1.95;;;11.70;99.90;;;;;;5046790;28;20470;-38
2023/09/23 02:25:55;;;;;;;1.80;1.70;;;11.70;99.90;;;;;;5066948;28;20031;-40
2023/09/23 02:28:21;;;;;;;1.80;1.70;;;11.70;99.90;;;;;;5048436;28;20376;-40
2023/09/23 02:30:46;;;;;;;2.58;1.88;;;11.70;99.90;;;;;;5044482;28;20049;-40
2023/09/23 02:33:12;;;;;;;3.20;1.80;;;11.70;99.90;;;;;;5049193;28;20425;-40
2023/09/23 02:35:38;;;;;;;2.88;1.88;;;11.60;99.90;;;;;;5049271;28;20029;-40
2023/09/23 02:38:03;;;;;;;2.03;1.90;;;11.60;99.90;;;;;;5042857;28;20095;-38
2023/09/23 02:40:29;;;;;;;2.70;1.60;;;11.70;99.90;;;;;;5065316;28;20135;-39
2023/09/23 02:42:57;;;;;;;3.42;1.95;;;11.70;99.90;;;;;;5047091;28;20032;-38
2023/09/23 02:45:23;;;;;;;2.25;1.88;;;11.60;99.90;;;;;;5044367;28;20087;-40
2023/09/23 02:47:49;;;;;;;3.17;1.90;;;11.70;99.90;;;;;;5048557;28;20135;-40
2023/09/23 02:50:17;;;;;;;2.00;1.90;;;11.70;99.90;;;;;;5048167;28;20024;-41
2023/09/23 02:52:49;;;;;;;5.82;2.05;;;11.70;99.90;;;;;;5063639;28;20032;-37
2023/09/23 02:55:16;;;;;;;3.10;1.80;;;11.70;99.90;;;;;;5047373;28;20131;-40
2023/09/23 02:57:48;;;;;;;3.47;1.85;;;11.60;99.90;;;;;;5047304;28;20029;-39
2023/09/23 03:00:17;;;;;;;1.98;1.77;;;11.70;99.90;;;;;;5050555;28;20368;-40
2023/09/23 03:02:52;;;;;;;2.13;1.77;;;11.70;99.90;;;;;;5049387;28;20699;-39
2023/09/23 03:05:23;;;;;;;2.15;1.88;;;11.70;99.90;;;;;;5047284;28;20025;-31
2023/09/23 03:07:50;;;;;;;1.88;1.77;;;11.70;99.90;;;;;;5043568;28;20037;-31
2023/09/23 03:10:30;;;;;;;1.95;1.77;;;11.70;99.90;;;;;;5048307;28;20082;-30
2023/09/23 03:13:02;;;;;;;1.85;1.75;;;11.70;99.90;;;;;;5049778;28;20033;-31
2023/09/23 03:15:33;;;;;;;2.17;1.90;;;11.80;99.90;;;;;;5050313;28;20037;-30
2023/09/23 03:18:00;;;;;;;1.80;1.65;;;11.80;99.90;;;;;;5039938;28;20029;-31
2023/09/23 03:20:26;;;;;;;1.92;1.75;;;11.80;99.90;;;;;;5045826;28;20096;-32
2023/09/23 03:22:53;;;;;;;1.83;1.70;;;11.70;99.90;;;;;;5046924;28;20021;-31
2023/09/23 03:25:20;;;;;;;2.22;2.03;;;11.70;99.90;;;;;;5044721;28;20041;-31
2023/09/23 03:27:51;;;;;;;2.03;1.77;;;11.70;99.90;;;;;;5048015;28;20134;-32
2023/09/23 03:30:17;;;;;;;2.60;2.00;;;11.60;99.90;;;;;;5046830;28;20583;-31
2023/09/23 03:32:45;;;;;;;3.50;1.70;;;11.60;99.90;;;;;;5046629;28;20060;-34
2023/09/23 03:35:17;;;;;;;2.28;1.70;;;11.60;99.90;;;;;;5044500;28;20116;-31
2023/09/23 03:37:47;;;;;;;3.20;1.83;;;11.60;99.90;;;;;;5043409;28;20033;-31
2023/09/23 03:40:19;;;;;;;1.85;1.70;;;11.70;99.90;;;;;;5072798;28;20506;-32
2023/09/23 03:42:47;;;;;;;2.58;1.98;;;11.70;99.90;;;;;;5046181;28;20100;-34
2023/09/23 03:45:12;;;;;;;1.80;1.70;;;11.60;99.90;;;;;;5043035;28;20048;-36
2023/09/23 03:47:38;;;;;;;2.22;2.03;;;11.60;99.90;;;;;;5056990;28;20039;-30
2023/09/23 03:50:05;;;;;;;1.95;1.85;;;11.50;99.90;;;;;;5043753;28;20387;-30
2023/09/23 03:52:32;;;;;;;2.70;1.92;;;11.50;99.90;;;;;;5046227;28;20029;-30
2023/09/23 03:54:58;;;;;;;1.90;1.80;;;11.50;99.90;;;;;;5043312;28;20064;-33
2023/09/23 03:57:23;;;;;;;1.85;1.73;;;11.50;99.90;;;;;;5059296;28;20048;-30
2023/09/23 03:59:49;;;;;;;2.33;1.70;;;11.60;99.90;;;;;;5041917;28;20033;-32
2023/09/23 04:02:15;;;;;;;2.00;1.90;;;11.50;99.90;;;;;;5043797;28;20025;-30
2023/09/23 04:04:40;;;;;;;2.15;1.95;;;11.50;99.90;;;;;;5044020;28;20087;-30
2023/09/23 04:07:07;;;;;;;1.90;1.70;;;11.50;99.90;;;;;;5045112;28;20036;-32
2023/09/23 04:09:33;;;;;;;2.20;2.00;;;11.50;99.90;;;;;;5041931;28;20398;-30
2023/09/23 04:12:00;;;;;;;1.73;1.63;;;11.40;99.90;;;;;;5044802;28;20031;-29
2023/09/23 04:14:29;;;;;;;2.00;1.80;;;11.40;99.90;;;;;;5042356;28;20021;-37
2023/09/23 04:16:54;;;;;;;2.53;1.95;;;11.50;99.90;;;;;;5043258;28;20029;-37
2023/09/23 04:19:20;;;;;;;2.55;2.17;;;11.50;99.90;;;;;;5044705;28;20098;-40
2023/09/23 04:21:45;;;;;;;2.50;2.30;;;11.50;99.90;;;;;;5047831;28;20021;-38
2023/09/23 04:24:11;;;;;;;2.70;1.95;;;11.50;99.90;;;;;;5045545;28;20108;-37
2023/09/23 04:26:36;;;;;;;2.20;2.00;;;11.50;99.90;;;;;;5048490;28;20032;-37
2023/09/23 04:29:02;;;;;;;2.95;2.05;;;11.50;99.90;;;;;;5047238;28;20118;-40
2023/09/23 04:31:28;;;;;;;2.20;2.00;;;11.50;99.90;;;;;;5047867;28;20075;-39
2023/09/23 04:33:54;;;;;;;2.33;2.10;;;11.50;99.90;;;;;;5049259;28;20474;-37
2023/09/23 04:36:21;;;;;;;2.33;2.13;;;11.50;99.90;;;;;;5045587;28;20033;-39
2023/09/23 04:38:48;;;;;;;2.10;2.00;;;11.50;99.90;;;;;;5047932;28;20025;-37
2023/09/23 04:41:13;;;;;;;2.83;2.08;;;11.50;99.90;;;;;;5045648;28;20033;-38
2023/09/23 04:43:40;;;;;;;2.45;2.25;;;11.50;99.90;;;;;;5045666;28;20036;-40
2023/09/23 04:46:06;;;;;;;3.20;2.67;;;11.40;99.90;;;;;;5046436;28;20045;-40
2023/09/23 04:48:32;;;;;;;3.42;2.55;;;11.40;99.90;;;;;;5046803;28;20481;-39
2023/09/23 04:50:58;;;;;;;2.30;2.10;;;11.40;99.90;;;;;;5046658;28;20029;-39
2023/09/23 04:53:24;;;;;;;3.22;2.30;;;11.40;99.90;;;;;;5047125;28;20048;-37
2023/09/23 04:55:50;;;;;;;4.32;2.50;;;11.40;99.90;;;;;;5044530;28;20120;-39
2023/09/23 04:58:16;;;;;;;4.10;2.70;;;11.40;99.90;;;;;;5045410;28;20597;-39
2023/09/23 05:00:42;;;;;;;2.72;2.40;;;11.50;99.90;;;;;;5042862;28;20068;-39
2023/09/23 05:03:08;;;;;;;3.30;2.67;;;11.40;99.90;;;;;;5057141;28;20064;-39
2023/09/23 05:05:34;;;;;;;3.05;2.40;;;11.40;99.90;;;;;;5044843;28;20116;-38
2023/09/23 05:08:02;;;;;;;3.92;2.60;;;11.50;99.90;;;;;;5048349;28;20475;-38
2023/09/23 05:10:28;;;;;;;3.10;2.80;;;11.50;99.90;;;;;;5045377;28;20094;-38
2023/09/23 05:12:54;;;;;;;2.80;2.55;;;11.50;99.90;;;;;;5045632;28;20139;-39
2023/09/23 05:15:19;;;;;;;2.50;2.30;;;11.50;99.90;;;;;;5043007;28;20486;-40
2023/09/23 05:17:45;;;;;;;2.83;2.47;;;11.50;99.90;;;;;;5045459;28;20104;-39
2023/09/23 05:20:25;;;;;;;3.78;2.38;;;11.50;99.90;;;;;;5046525;28;20033;-36
2023/09/23 05:22:54;;;;;;;2.55;2.35;;;11.50;99.90;;;;;;5075474;28;20120;-40
2023/09/23 05:25:24;;;;;;;2.60;2.40;;;11.40;99.90;;;;;;5042644;28;20386;-41
2023/09/23 05:27:51;;;;;;;2.72;2.53;;;11.40;99.90;;;;;;5046176;28;20041;-39
2023/09/23 05:30:17;;;;;;;3.22;2.38;;;11.50;99.90;;;;;;5045126;28;20033;-38
2023/09/23 05:32:45;;;;;;;3.00;2.65;;;11.50;99.90;;;;;;5043150;28;20040;-38
2023/09/23 05:35:11;;;;;;;2.97;2.38;;;11.50;99.90;;;;;;5046416;28;20083;-41
2023/09/23 05:37:39;;;;;;;2.80;2.50;;;11.50;99.90;;;;;;5047436;28;20421;-38
2023/09/23 05:40:26;;;;;;;2.38;2.17;;;11.50;99.90;;;;;;5047963;28;20143;-41
2023/09/23 05:42:52;;;;;;;2.10;1.90;;;11.40;99.90;;;;;;5047437;28;20493;-41
2023/09/23 05:45:18;;;;;;;2.35;2.15;;;11.50;99.90;;;;;;5045306;28;20045;-40
2023/09/23 05:47:45;;;;;;;3.85;2.45;;;11.40;99.90;;;;;;5042674;28;20028;-36
2023/09/23 05:50:11;;;;;;;2.30;2.10;;;11.40;99.90;;;;;;5044647;28;20032;-38
2023/09/23 05:52:36;;;;;;;2.83;2.55;;;11.40;99.90;;;;;;5044963;28;20510;-38
2023/09/23 05:55:06;;;;;;;3.85;2.40;;;11.40;99.90;;;;;;5044868;28;20068;-41
2023/09/23 05:57:34;;;;;;;3.00;2.70;;;11.40;99.90;;;;;;5044565;28;20098;-41
2023/09/23 06:00:01;;;;;;;2.50;2.30;;;11.40;99.90;;;;;;5044996;28;20076;-41
2023/09/23 06:02:26;;;;;;;3.47;2.83;;;11.40;99.90;;;;;;5043396;28;20501;-39
2023/09/23 06:04:54;;;;;;;4.70;2.38;;;11.40;99.90;;;;;;5045136;28;20017;-39
2023/09/23 06:07:19;;;;;;;3.85;2.65;;;11.40;99.90;;;;;;5048125;28;20068;-40
2023/09/23 06:09:45;;;;;;;4.22;2.97;;;11.40;99.90;;;;;;5047947;28;20121;-38
2023/09/23 06:12:11;;;;;;;3.60;2.58;;;11.50;99.90;;;;;;5044879;28;20053;-39
2023/09/23 06:14:36;;;;;;;3.20;2.90;;;11.50;99.90;;;;;;5044617;28;20044;-41
2023/09/23 06:17:02;;;;;;;3.25;2.80;;;11.50;99.90;;;;;;5042231;28;20035;-41
2023/09/23 06:19:28;;;;;;;3.30;2.50;;;11.50;99.90;;;;;;5045416;28;20483;-41
2023/09/23 06:21:54;;;;;;;5.72;3.08;;;11.60;99.90;;;;;;5046204;28;20029;-38
2023/09/23 06:24:20;;;;;;;3.38;2.72;;;11.60;99.90;;;;;;5047710;28;20044;-41
2023/09/23 06:26:46;;;;;;;2.40;2.15;;;11.60;99.90;;;;;;5045557;28;20066;-41
2023/09/23 06:29:14;;;;;;;2.22;2.05;;;11.60;99.90;;;;;;5043751;28;20037;-40
2023/09/23 06:31:40;;;;;;;3.10;2.40;;;11.70;99.90;;;;;;5046332;28;20036;-41
2023/09/23 06:34:06;;;;;;;3.17;2.25;;;11.70;99.90;;;;;;5047262;28;20103;-39
2023/09/23 06:36:32;;;;;;;2.75;2.05;;;11.70;99.90;;;;;;5043570;28;20166;-40
2023/09/23 06:38:58;;;;;;;2.38;2.17;;;11.70;99.90;;;;;;5042457;28;20029;-38
2023/09/23 06:41:24;;;;;;;4.00;1.92;;;11.70;99.90;;;;;;5045140;28;20033;-39
2023/09/23 06:43:50;;;;;;;3.63;2.13;;;11.70;99.90;;;;;;5044802;28;20060;-41
2023/09/23 06:46:16;;;;;;;2.47;1.88;;;11.70;99.90;;;;;;5043848;28;20119;-41
2023/09/23 06:48:42;;;;;;;4.15;1.80;;;11.80;99.90;;;;;;5045943;28;20123;-41
2023/09/23 06:51:09;;;;;;;2.97;1.80;;;11.80;99.90;;;;;;5046389;28;20478;-38
2023/09/23 06:53:35;;;;;;;3.05;1.80;;;11.80;99.90;;;;;;5046731;28;20686;-37
2023/09/23 06:56:00;;;;;;;1.65;1.40;;;11.80;99.90;;;;;;5036955;28;20033;-41
2023/09/23 06:58:26;;;;;;;1.98;1.73;;;11.80;99.90;;;;;;5062488;28;20021;-41
2023/09/23 07:00:53;;;;;;;2.88;1.60;;;11.90;99.90;;;;;;5048849;28;20473;-41
2023/09/23 07:03:19;;;;;;;1.73;1.40;;;11.90;99.90;;;;;;5046953;28;20553;-40
2023/09/23 07:05:45;;;;;;;1.65;1.40;;;11.90;99.90;;;;;;5046148;28;20033;-39
2023/09/23 07:08:11;;;;;;;1.50;1.40;;;12.00;99.90;;;;;;5043677;28;20044;-39
2023/09/23 07:10:38;;;;;;;1.90;1.40;;;12.00;99.90;;;;;;5043058;28;20112;-41
2023/09/23 07:13:04;;;;;;;0.95;0.95;;;12.00;99.90;;;;;;5044430;28;20992;-41
2023/09/23 07:15:34;;;;;;;1.30;1.20;;;12.00;99.90;;;;;;5042084;28;20070;-38
2023/09/23 07:18:00;;;;;;;1.40;1.30;;;12.00;99.90;;;;;;5042620;28;20151;-38
2023/09/23 07:20:27;;;;;;;2.35;1.30;;;12.10;99.90;;;;;;5042996;28;20148;-39
2023/09/23 07:22:52;;;;;;;1.38;1.20;;;12.10;99.90;;;;;;5043442;28;20025;-41
2023/09/23 07:25:18;;;;;;;1.55;1.20;;;12.20;99.90;;;;;;5040336;28;20087;-41
2023/09/23 07:27:43;;;;;;;2.38;1.45;;;12.20;99.90;;;;;;5043351;28;20040;-40
2023/09/23 07:30:09;;;;;;;1.83;1.13;;;12.30;99.90;;;;;;5042531;28;20486;-34
2023/09/23 07:32:35;;;;;;;1.58;1.30;;;12.30;99.90;;;;;;5025645;28;21125;-41
2023/09/23 07:35:01;;;;;;;1.40;1.30;;;12.30;99.90;;;;;;5021377;28;20063;-40
2023/09/23 07:37:26;;;;;;;1.20;1.10;;;12.40;99.90;;;;;;5026136;28;20112;-41
2023/09/23 07:39:52;;;;;;;1.98;1.42;;;12.50;99.90;;;;;;5023816;28;20387;-41
2023/09/23 07:42:18;;;;;;;1.50;1.40;;;12.70;99.90;;;;;;5022883;28;20022;-38
2023/09/23 07:44:43;;;;;;;1.40;1.30;;;12.80;99.90;;;;;;5022372;28;20059;-38
2023/09/23 07:47:12;;;;;;;1.15;1.08;;;13.10;99.90;;;;;;5023096;28;20025;-36
2023/09/23 07:49:38;;;;;;;2.22;1.05;;;13.30;99.90;;;;;;5020903;28;20475;-39
2023/09/23 07:52:04;;;;;;;1.67;1.08;;;13.30;99.90;;;;;;5024261;28;20379;-39
2023/09/23 07:54:30;;;;;;;0.77;0.75;;;13.40;99.90;;;;;;5037484;28;20033;-35
2023/09/23 07:56:57;;;;;;;1.13;0.98;;;13.50;99.90;;;;;;5025727;28;20087;-36
2023/09/23 07:59:23;;;;;;;1.75;0.90;;;13.50;99.90;;;;;;5054202;28;20073;-32
2023/09/23 08:01:50;;;;;;;1.05;0.80;;;13.30;99.90;;;;;;5034792;28;20069;-33
2023/09/23 08:04:16;;;;;;;1.30;1.17;;;13.40;99.90;;;;;;5040280;28;20090;-32
2023/09/23 08:06:43;;;;;;;1.17;0.90;;;13.30;99.90;;;;;;5042915;28;20657;-33
2023/09/23 08:09:13;;;;;;;1.10;1.00;;;13.40;99.90;;;;;;5074228;28;20083;-34
2023/09/23 08:11:39;;;;;;;1.70;1.00;;;13.20;99.90;;;;;;5026126;28;20105;-34
2023/09/23 08:14:05;;;;;;;1.60;1.10;;;13.20;99.90;;;;;;5042543;28;20037;-34
2023/09/23 08:16:31;;;;;;;1.10;0.98;;;13.20;99.90;;;;;;5054910;28;20483;-32
2023/09/23 08:18:56;;;;;;;0.95;0.90;;;13.20;99.90;;;;;;5040803;28;20033;-34
2023/09/23 08:21:22;;;;;;;0.60;0.60;;;13.20;99.90;;;;;;5051872;28;20017;-32
2023/09/23 08:23:47;;;;;;;3.28;1.00;;;13.10;99.90;;;;;;5073037;28;20026;-32
2023/09/23 08:26:13;;;;;;;1.05;1.00;;;13.10;99.90;;;;;;5041213;28;20048;-34
2023/09/23 08:28:39;;;;;;;1.65;0.80;;;13.20;99.90;;;;;;5042180;28;20037;-35
2023/09/23 08:31:05;;;;;;;1.50;1.17;;;13.30;99.90;;;;;;5037706;28;20587;-33
2023/09/23 08:33:30;;;;;;;1.02;0.90;;;13.30;99.90;;;;;;5037577;28;20103;-34
2023/09/23 08:35:56;;;;;;;2.75;0.90;;;13.30;99.90;;;;;;5040455;28;20513;-35
2023/09/23 08:38:22;;;;;;;0.93;0.80;;;13.40;99.90;;;;;;5039530;28;20040;-33
2023/09/23 08:40:50;;;;;;;1.75;0.80;;;13.30;99.90;;;;;;5040578;28;20108;-32
2023/09/23 08:43:21;;;;;;;2.03;0.93;;;13.30;99.90;;;;;;5040237;28;20025;-33
2023/09/23 08:45:47;;;;;;;2.13;0.70;;;13.40;99.90;;;;;;5037183;28;20386;-32
2023/09/23 08:48:16;;;;;;;0.90;0.90;;;13.40;99.90;;;;;;5041799;28;20039;-35
2023/09/23 08:50:43;;;;;;;2.45;1.10;;;13.40;99.90;;;;;;5039700;28;20033;-36
2023/09/23 08:53:11;;;;;;;3.07;0.80;;;13.50;99.90;;;;;;5041329;28;20033;-37
2023/09/23 08:55:38;;;;;;;1.00;0.80;;;13.70;99.90;;;;;;5040087;28;20145;-34
2023/09/23 08:58:04;;;;;;;3.10;1.10;;;14.00;99.90;;;;;;5039058;28;20307;-31
2023/09/23 09:00:30;;;;;;;2.20;0.98;;;14.20;99.90;;;;;;5040590;28;20112;-32
2023/09/23 09:02:57;;;;;;;1.02;0.93;;;14.50;99.90;;;;;;5040267;28;20060;-34
2023/09/23 09:05:23;;;;;;;1.00;0.90;;;14.70;99.90;;;;;;5040886;28;20067;-40
2023/09/23 09:07:50;;;;;;;0.85;0.85;;;14.90;99.90;;;;;;5039450;28;20043;-38
2023/09/23 09:10:17;;;;;;;1.70;0.90;;;14.80;99.90;;;;;;5032541;28;20037;-39
2023/09/23 09:12:43;;;;;;;0.80;0.80;;;14.70;99.90;;;;;;5045478;28;20043;-39
2023/09/23 09:15:09;;;;;;;0.88;0.88;;;14.70;99.90;;;;;;5043200;28;20067;-39
2023/09/23 09:17:35;;;;;;;1.60;1.00;;;14.80;99.90;;;;;;5043839;28;20032;-40
2023/09/23 09:20:11;;;;;;;0.93;0.88;;;14.70;99.90;;;;;;5039152;28;20033;-39
2023/09/23 09:22:39;;;;;;;1.30;0.93;;;14.70;99.90;;;;;;5045188;28;20021;-37
2023/09/23 09:25:05;;;;;;;1.02;0.90;;;14.70;99.90;;;;;;5073029;28;20398;-40
2023/09/23 09:27:31;;;;;;;1.08;0.90;;;14.60;99.90;;;;;;5057117;28;20033;-40
2023/09/23 09:29:56;;;;;;;1.00;0.88;;;14.80;99.90;;;;;;5043436;28;20508;-40
2023/09/23 09:32:29;;;;;;;1.10;0.90;;;15.00;99.90;;;;;;5042036;28;20056;-38
2023/09/23 09:35:03;;;;;;;1.10;1.00;;;15.30;99.90;;;;;;5039516;28;20021;-39
2023/09/23 09:37:31;;;;;;;0.70;0.60;;;15.40;99.90;;;;;;5044176;28;20040;-40
2023/09/23 09:39:57;;;;;;;0.80;0.80;;;15.50;99.90;;;;;;5043741;28;20029;-40
2023/09/23 09:42:29;;;;;;;0.82;0.80;;;15.50;99.90;;;;;;5043480;28;20029;-41
2023/09/23 09:44:56;;;;;;;1.90;1.55;;;15.30;99.90;;;;;;5044565;28;20098;-38
2023/09/23 09:47:22;;;;;;;0.80;0.80;;;14.90;99.90;;;;;;5041553;28;20033;-40
2023/09/23 09:49:54;;;;;;;2.78;0.80;;;14.80;99.90;;;;;;5043503;28;20478;-40
2023/09/23 09:52:24;;;;;;;1.85;0.90;;;14.70;99.90;;;;;;5039650;28;20033;-39
2023/09/23 09:54:53;;;;;;;0.70;0.70;;;14.50;99.90;;;;;;5041662;28;20044;-40
2023/09/23 09:57:22;;;;;;;0.90;0.68;;;14.30;99.90;;;;;;5042637;28;20037;-35
2023/09/23 09:59:48;;;;;;;1.45;0.70;;;14.30;99.90;;;;;;5044223;28;20033;-39
2023/09/23 10:02:15;;;;;;;0.68;0.68;;;14.60;99.90;;;;;;5042880;28;20048;-40
2023/09/23 10:04:46;;;;;;;0.60;0.60;;;14.80;99.90;;;;;;5042932;28;20520;-38
2023/09/23 10:07:12;;;;;;;0.82;0.70;;;15.00;99.90;;;;;;5046109;28;20099;-40
2023/09/23 10:09:48;;;;;;;1.00;0.75;;;15.10;99.90;;;;;;5044452;28;20112;-39
2023/09/23 10:12:14;;;;;;;0.93;0.80;;;15.30;99.90;;;;;;5042480;28;20040;-39
2023/09/23 10:14:40;;;;;;;1.08;0.77;;;15.50;99.90;;;;;;5044916;28;20409;-40
2023/09/23 10:17:07;;;;;;;1.65;0.60;;;15.60;99.90;;;;;;5043623;28;20041;-38
2023/09/23 10:19:42;;;;;;;1.75;0.50;;;15.80;99.90;;;;;;5043852;28;20766;-40
2023/09/23 10:22:17;;;;;;;0.95;0.47;;;15.90;99.90;;;;;;5044284;28;20052;-38
2023/09/23 10:24:43;;;;;;;0.68;0.63;;;15.90;99.90;;;;;;5051356;28;20024;-32
2023/09/23 10:27:10;;;;;;;2.70;0.70;;;15.90;99.90;;;;;;5044859;28;20025;-34
2023/09/23 10:29:45;;;;;;;0.65;0.65;;;15.80;99.90;;;;;;5046067;28;20035;-35
2023/09/23 10:32:15;;;;;;;1.75;0.80;;;15.60;99.90;;;;;;5042287;28;20048;-33
2023/09/23 10:34:52;;;;;;;2.13;0.65;;;15.40;99.90;;;;;;5043856;28;20033;-39
2023/09/23 10:37:25;;;;;;;1.50;0.82;;;15.40;99.90;;;;;;5041773;28;20025;-40
2023/09/23 10:39:51;;;;;;;1.25;0.73;;;15.50;99.90;;;;;;5040765;28;20033;-41
2023/09/23 10:42:16;;;;;;;1.20;0.80;;;15.60;99.90;;;;;;5044218;28;20370;-38
2023/09/23 10:44:42;;;;;;;1.35;0.68;;;15.40;99.90;;;;;;5039957;28;20521;-41
2023/09/23 10:47:08;;;;;;;2.03;0.98;;;15.40;99.90;;;;;;5042332;28;20048;-41
2023/09/23 10:49:35;;;;;;;0.68;0.65;;;15.40;99.90;;;;;;5042836;28;20025;-39
2023/09/23 10:52:01;;;;;;;1.98;0.70;;;15.50;99.90;;;;;;5044982;28;20043;-41
2023/09/23 10:54:27;;;;;;;1.60;0.60;;;15.60;99.90;;;;;;5045170;28;20028;-38
2023/09/23 10:56:53;;;;;;;1.25;0.90;;;15.60;99.90;;;;;;5042241;28;20083;-41
2023/09/23 10:59:19;;;;;;;1.90;0.95;;;15.60;99.90;;;;;;5046720;28;20025;-41
2023/09/23 11:01:45;;;;;;;0.70;0.70;;;15.70;99.90;;;;;;5044724;28;20033;-40
2023/09/23 11:04:11;;;;;;;1.17;0.90;;;15.80;99.90;;;;;;5042399;28;20509;-40
2023/09/23 11:06:37;;;;;;;1.13;0.80;;;15.70;99.90;;;;;;5039769;28;20033;-37
2023/09/23 11:09:05;;;;;;;1.05;0.80;;;16.00;99.90;;;;;;5039141;28;20029;-41
2023/09/23 11:11:36;;;;;;;2.85;1.00;;;16.00;99.90;;;;;;5041431;28;20064;-39
2023/09/23 11:14:02;;;;;;;0.85;0.75;;;16.10;99.90;;;;;;5044657;28;20532;-41
2023/09/23 11:16:28;;;;;;;2.42;0.80;;;16.20;99.90;;;;;;5056358;28;20036;-40
2023/09/23 11:18:55;;;;;;;0.77;0.68;;;16.20;99.90;;;;;;5042243;28;20075;-35
2023/09/23 11:21:21;;;;;;;0.80;0.80;;;16.10;99.90;;;;;;5037920;28;20021;-40
2023/09/23 11:23:56;;;;;;;1.65;0.95;;;16.00;99.90;;;;;;5032720;28;20305;-35
2023/09/23 11:26:22;;;;;;;5.35;1.50;;;16.10;99.90;;;;;;5042935;28;20090;-31
2023/09/23 11:28:48;;;;;;;0.85;0.80;;;16.20;99.90;;;;;;5042529;28;20025;-30
2023/09/23 11:31:13;;;;;;;1.45;0.80;;;16.00;99.90;;;;;;5041567;28;20040;-33
2023/09/23 11:33:39;;;;;;;2.03;0.85;;;16.10;99.90;;;;;;5046375;28;20154;-40
2023/09/23 11:36:05;;;;;;;2.47;0.90;;;16.10;99.90;;;;;;5042997;28;20037;-42
2023/09/23 11:38:30;;;;;;;1.15;0.93;;;16.20;99.90;;;;;;5043737;28;20037;-41
2023/09/23 11:40:56;;;;;;;1.75;1.02;;;16.20;99.90;;;;;;5057450;28;20654;-41
2023/09/23 11:43:22;;;;;;;0.68;0.57;;;16.30;99.90;;;;;;5044208;28;20386;-39
2023/09/23 11:45:48;;;;;;;1.35;0.60;;;16.40;99.90;;;;;;5044089;28;20041;-41
2023/09/23 11:48:14;;;;;;;4.55;0.93;;;16.30;99.90;;;;;;5043158;28;20032;-40
2023/09/23 11:50:39;;;;;;;1.60;0.80;;;16.30;99.90;;;;;;5043310;28;20098;-39
2023/09/23 11:53:05;;;;;;;0.75;0.75;;;16.40;99.90;;;;;;5041544;28;20076;-41
2023/09/23 11:55:32;;;;;;;1.02;0.70;;;16.50;99.90;;;;;;5043005;28;20374;-40
2023/09/23 11:57:59;;;;;;;0.93;0.73;;;16.60;99.90;;;;;;5043581;28;20045;-36
2023/09/23 12:00:25;;;;;;;0.93;0.82;;;16.60;99.90;;;;;;5042797;28;20471;-41
2023/09/23 12:02:51;;;;;;;1.88;0.80;;;16.70;99.90;;;;;;5046664;28;20017;-40
2023/09/23 12:05:16;;;;;;;1.52;0.90;;;16.80;99.90;;;;;;5044596;28;20047;-42
2023/09/23 12:07:43;;;;;;;2.65;0.85;;;16.80;99.90;;;;;;5041677;28;20017;-36
2023/09/23 12:10:09;;;;;;;2.08;0.90;;;16.60;99.90;;;;;;5044910;28;20030;-40
2023/09/23 12:12:35;;;;;;;1.38;1.27;;;16.60;99.90;;;;;;5045518;28;20478;-41
2023/09/23 12:15:02;;;;;;;0.90;0.80;;;16.50;99.90;;;;;;5046406;28;20067;-41
2023/09/23 12:17:27;;;;;;;0.80;0.80;;;16.60;99.90;;;;;;5046259;28;20040;-40
2023/09/23 12:19:53;;;;;;;1.65;0.70;;;16.60;99.90;;;;;;5042903;28;20025;-41
2023/09/23 12:22:20;;;;;;;0.90;0.70;;;16.50;99.90;;;;;;5037388;28;20021;-36
2023/09/23 12:24:46;;;;;;;2.15;0.82;;;16.50;99.90;;;;;;5039756;28;20030;-38
2023/09/23 12:27:12;;;;;;;0.70;0.70;;;16.40;99.90;;;;;;5036846;28;20531;-35
2023/09/23 12:29:39;;;;;;;1.27;0.60;;;16.20;99.90;;;;;;5044218;28;20106;-38
2023/09/23 12:32:05;;;;;;;0.52;0.50;;;16.30;99.90;;;;;;5036040;28;20556;-41
2023/09/23 12:34:32;;;;;;;0.82;0.50;;;16.40;99.90;;;;;;5037374;28;20401;-39
2023/09/23 12:36:58;;;;;;;4.90;0.98;;;16.40;99.90;;;;;;5032274;28;20029;-35
2023/09/23 12:39:24;;;;;;;0.80;0.60;;;16.50;99.90;;;;;;5028703;28;20201;-38
2023/09/23 12:41:50;;;;;;;1.42;0.63;;;16.70;99.90;;;;;;5031755;28;20017;-37
2023/09/23 12:44:17;;;;;;;0.93;0.60;;;16.80;99.90;;;;;;5044173;28;20051;-30
2023/09/23 12:46:43;;;;;;;4.32;1.00;;;16.80;99.90;;;;;;5042769;28;20526;-30
2023/09/23 12:49:09;;;;;;;2.10;0.68;;;16.70;99.90;;;;;;5075380;28;20025;-32
2023/09/23 12:51:37;;;;;;;2.05;0.80;;;16.60;99.90;;;;;;5046638;28;20033;-30